Millboro, Virginia
Current Conditions -  °F | °C
As of 9:55 PM on Wednesday 26 Nov 2014 (Local Time) from KW13 Reporting Station
Overcast Overcast  
Wind Chill: 31°   Ceiling: 200
Heat Index: 31°   Visibility: 0.25mi
Dew Point: 31°   Wind: 0mph
Humidity: 100%   Direction: NA
Pressure: 29.99"   Gusts: NA
Location:  37.98°N, 79.6°W
Report Text: KW13 270255Z AUTO 00000KT 1/4SM OVC002 00/00 A2999 RMK AO1 P0001 60008 T10051005
Loading
Personal Weather Stations






























Interactive Weather Map New forecast layout! Learn more

10-Day Weather Forecast

Advertisements
Track Severe Weather on mobile